Time;durP1;ratioP1;P1;durP2;ratioP2;P2;SDS_P1;SDS_P2;PMS_P1;PMS_P2;Temp;Humidity;BMP_temperature;BMP_pressure;BME280_temperature;BME280_humidity;BME280_pressure;Samples;Min_cycle;Max_cycle;Signal;HPM_P1;HPM_P2
2023/09/30 00:00:22;;;;;;;13.48;4.63;;;11.90;91.20;;;;;;5073499;28;20093;-45
2023/09/30 00:02:50;;;;;;;13.80;3.95;;;11.90;91.30;;;;;;5072533;28;20097;-44
2023/09/30 00:05:19;;;;;;;13.02;3.90;;;11.90;91.40;;;;;;5073566;28;20029;-47
2023/09/30 00:07:47;;;;;;;15.43;4.43;;;12.00;91.60;;;;;;5073471;28;20037;-45
2023/09/30 00:10:14;;;;;;;14.20;4.13;;;12.00;91.70;;;;;;5073826;28;20058;-44
2023/09/30 00:12:41;;;;;;;13.88;4.60;;;12.10;91.80;;;;;;5055834;28;20111;-44
2023/09/30 00:15:09;;;;;;;19.90;4.20;;;12.10;91.90;;;;;;5073651;28;20032;-48
2023/09/30 00:17:37;;;;;;;13.75;3.45;;;12.10;92.00;;;;;;5055586;28;20339;-45
2023/09/30 00:20:04;;;;;;;15.98;4.93;;;12.20;92.00;;;;;;5072732;28;20350;-47
2023/09/30 00:22:36;;;;;;;10.45;3.45;;;12.20;92.10;;;;;;5073441;28;20478;-46
2023/09/30 00:25:07;;;;;;;16.85;4.53;;;12.20;92.20;;;;;;5072922;28;20154;-43
2023/09/30 00:27:34;;;;;;;15.27;4.43;;;12.20;92.30;;;;;;5073663;28;20032;-48
2023/09/30 00:30:06;;;;;;;11.88;3.38;;;12.30;92.40;;;;;;5073049;28;20020;-45
2023/09/30 00:32:33;;;;;;;17.90;3.83;;;12.30;92.40;;;;;;5056008;28;20036;-44
2023/09/30 00:35:04;;;;;;;17.15;4.80;;;12.30;92.50;;;;;;5055665;28;20035;-46
2023/09/30 00:37:33;;;;;;;16.52;5.07;;;12.40;92.40;;;;;;5072182;28;20020;-48
2023/09/30 00:40:00;;;;;;;17.75;4.32;;;12.40;92.40;;;;;;5072763;28;20032;-44
2023/09/30 00:42:27;;;;;;;8.60;4.07;;;12.40;92.40;;;;;;5081819;28;20135;-47
2023/09/30 00:44:56;;;;;;;12.73;3.97;;;12.40;92.50;;;;;;5091962;28;20453;-43
2023/09/30 00:47:26;;;;;;;14.07;5.47;;;12.40;92.40;;;;;;5093274;28;20078;-46
2023/09/30 00:49:59;;;;;;;16.17;3.95;;;12.40;92.40;;;;;;5093131;28;20098;-44
2023/09/30 00:52:29;;;;;;;16.67;4.55;;;12.40;92.30;;;;;;5080189;28;20107;-45
2023/09/30 00:54:57;;;;;;;16.52;4.40;;;12.40;92.50;;;;;;5072586;28;20024;-45
2023/09/30 00:57:25;;;;;;;18.98;4.30;;;12.40;92.50;;;;;;5072935;28;20028;-46
2023/09/30 00:59:53;;;;;;;16.88;4.65;;;12.40;92.50;;;;;;5052414;28;20074;-45
2023/09/30 01:02:23;;;;;;;12.70;4.43;;;12.40;92.50;;;;;;5084226;28;20024;-45
2023/09/30 01:04:50;;;;;;;20.08;3.97;;;12.40;92.50;;;;;;5092849;28;20039;-47
2023/09/30 01:07:17;;;;;;;11.73;3.78;;;12.40;92.50;;;;;;5093057;28;20031;-46
2023/09/30 01:09:46;;;;;;;15.73;4.30;;;12.40;92.60;;;;;;5069817;28;20028;-46
2023/09/30 01:12:13;;;;;;;12.68;3.85;;;12.40;92.50;;;;;;5072171;28;20104;-43
2023/09/30 01:14:42;;;;;;;12.73;4.03;;;12.40;92.50;;;;;;5072077;28;20162;-45
2023/09/30 01:17:11;;;;;;;8.95;3.47;;;12.40;92.50;;;;;;5073048;28;20098;-46
2023/09/30 01:19:38;;;;;;;21.42;4.22;;;12.40;92.50;;;;;;5054662;28;20090;-43
2023/09/30 01:22:05;;;;;;;12.88;4.15;;;12.40;92.50;;;;;;5072148;28;20040;-45
2023/09/30 01:24:30;;;;;;;16.98;3.67;;;12.40;92.70;;;;;;5071839;28;20111;-43
2023/09/30 01:26:56;;;;;;;8.48;3.50;;;12.40;92.70;;;;;;5073224;28;20108;-43
2023/09/30 01:29:26;;;;;;;7.13;3.47;;;12.40;92.70;;;;;;5054911;28;20353;-46
2023/09/30 01:31:53;;;;;;;14.13;4.57;;;12.40;92.70;;;;;;5055396;28;20034;-47
2023/09/30 01:34:20;;;;;;;14.38;4.38;;;12.40;92.70;;;;;;5039082;28;20032;-44
2023/09/30 01:36:47;;;;;;;11.68;4.80;;;12.40;92.80;;;;;;5072522;28;20028;-43
2023/09/30 01:39:16;;;;;;;14.60;4.10;;;12.40;92.80;;;;;;5072940;28;20017;-48
2023/09/30 01:41:41;;;;;;;15.73;4.73;;;12.40;92.80;;;;;;5055030;28;20029;-44
2023/09/30 01:44:14;;;;;;;10.50;3.53;;;12.40;92.80;;;;;;5072083;28;20041;-45
2023/09/30 01:46:44;;;;;;;14.30;3.95;;;12.40;92.70;;;;;;5072448;28;20020;-45
2023/09/30 01:49:11;;;;;;;10.60;3.40;;;12.30;92.70;;;;;;5072193;28;20438;-44
2023/09/30 01:51:38;;;;;;;10.95;3.97;;;12.30;92.70;;;;;;5072160;28;20445;-45
2023/09/30 01:54:07;;;;;;;11.73;4.05;;;12.30;92.70;;;;;;5074753;28;20028;-45
2023/09/30 01:56:35;;;;;;;10.43;4.90;;;12.30;92.80;;;;;;5076103;28;20040;-46
2023/09/30 01:59:01;;;;;;;13.85;5.38;;;12.30;92.80;;;;;;5075751;28;20032;-43
2023/09/30 02:01:28;;;;;;;11.50;3.80;;;12.30;92.80;;;;;;5058236;28;20028;-45
2023/09/30 02:03:55;;;;;;;19.80;5.40;;;12.30;92.80;;;;;;5075684;28;20024;-46
2023/09/30 02:06:22;;;;;;;13.95;3.80;;;12.30;92.90;;;;;;5075911;28;20035;-47
2023/09/30 02:08:50;;;;;;;10.85;3.85;;;12.30;92.90;;;;;;5058353;28;20103;-45
2023/09/30 02:11:19;;;;;;;15.90;4.78;;;12.30;93.00;;;;;;5075583;28;20491;-45
2023/09/30 02:13:46;;;;;;;17.05;4.07;;;12.30;92.90;;;;;;5057802;28;20441;-43
2023/09/30 02:16:13;;;;;;;9.80;3.50;;;12.40;93.00;;;;;;5075543;28;20380;-44
2023/09/30 02:18:44;;;;;;;12.48;4.38;;;12.30;92.90;;;;;;5076167;28;20021;-44
2023/09/30 02:21:13;;;;;;;15.60;4.07;;;12.30;92.90;;;;;;5058417;28;20028;-45
2023/09/30 02:23:40;;;;;;;10.93;3.67;;;12.30;92.90;;;;;;5075968;28;20035;-46
2023/09/30 02:26:06;;;;;;;14.93;4.57;;;12.30;93.00;;;;;;5075557;28;20449;-43
2023/09/30 02:28:33;;;;;;;14.00;4.63;;;12.20;92.90;;;;;;5075083;28;20075;-43
2023/09/30 02:31:01;;;;;;;16.75;4.63;;;12.20;92.90;;;;;;5075478;28;20033;-43
2023/09/30 02:33:29;;;;;;;12.45;4.55;;;12.20;92.90;;;;;;5075671;28;20025;-44
2023/09/30 02:35:57;;;;;;;14.65;4.57;;;12.20;92.90;;;;;;5075344;28;20036;-44
2023/09/30 02:38:25;;;;;;;10.05;4.05;;;12.20;93.00;;;;;;5075900;28;20034;-46
2023/09/30 02:40:55;;;;;;;13.18;4.93;;;12.20;93.00;;;;;;5075095;28;20111;-45
2023/09/30 02:43:23;;;;;;;;;;;12.20;93.10;;;;;;5074991;28;20065;-44
2023/09/30 02:45:51;;;;;;;14.65;4.72;;;12.20;93.10;;;;;;5075692;28;19916;-45
2023/09/30 02:48:18;;;;;;;16.88;5.35;;;12.20;93.10;;;;;;5075067;28;20078;-44
2023/09/30 02:50:51;;;;;;;12.90;4.78;;;12.30;93.20;;;;;;5075485;28;20468;-44
2023/09/30 02:53:18;;;;;;;10.82;4.20;;;12.30;93.20;;;;;;5057621;28;20032;-45
2023/09/30 02:55:45;;;;;;;13.32;5.03;;;12.30;93.20;;;;;;5057070;28;20040;-43
2023/09/30 02:58:12;;;;;;;17.52;4.68;;;12.30;93.20;;;;;;5075024;28;20473;-44
2023/09/30 03:00:38;;;;;;;13.95;4.03;;;12.40;93.20;;;;;;5074880;28;20033;-43
2023/09/30 03:03:04;;;;;;;17.63;4.70;;;12.40;93.20;;;;;;5073645;28;20033;-42
2023/09/30 03:05:34;;;;;;;15.13;4.45;;;12.40;93.30;;;;;;5076671;28;20034;-44
2023/09/30 03:08:01;;;;;;;15.63;5.38;;;12.40;93.20;;;;;;5086916;28;20036;-44
2023/09/30 03:10:27;;;;;;;14.48;5.45;;;12.40;93.30;;;;;;5057402;28;20075;-46
2023/09/30 03:12:55;;;;;;;14.68;5.55;;;12.40;93.30;;;;;;5040358;28;20028;-45
2023/09/30 03:15:21;;;;;;;10.90;4.10;;;12.30;93.10;;;;;;5081157;28;20031;-44
2023/09/30 03:17:47;;;;;;;12.73;4.68;;;12.40;93.10;;;;;;5092967;28;20069;-46
2023/09/30 03:20:20;;;;;;;14.40;5.25;;;12.30;93.00;;;;;;5094737;28;20059;-45
2023/09/30 03:22:48;;;;;;;11.23;4.38;;;12.30;93.00;;;;;;5094839;28;20044;-44
2023/09/30 03:25:17;;;;;;;9.77;3.92;;;12.30;93.00;;;;;;5087754;28;20083;-47
2023/09/30 03:27:48;;;;;;;14.60;5.28;;;12.30;93.10;;;;;;5074382;28;20017;-47
2023/09/30 03:30:16;;;;;;;15.98;5.00;;;12.30;93.10;;;;;;5057158;28;20035;-46
2023/09/30 03:32:47;;;;;;;9.55;3.85;;;12.30;93.10;;;;;;5056673;28;20058;-46
2023/09/30 03:35:16;;;;;;;15.07;4.80;;;12.30;93.00;;;;;;5074187;28;20024;-45
2023/09/30 03:37:48;;;;;;;15.65;4.28;;;12.30;93.10;;;;;;5074264;28;20028;-44
2023/09/30 03:40:18;;;;;;;14.25;4.45;;;12.30;93.20;;;;;;5074173;28;20040;-44
2023/09/30 03:42:50;;;;;;;11.80;4.65;;;12.30;93.20;;;;;;5037380;28;20115;-46
2023/09/30 03:45:17;;;;;;;11.85;4.93;;;12.40;93.20;;;;;;5037328;28;20037;-44
2023/09/30 03:47:43;;;;;;;14.07;4.25;;;12.40;93.20;;;;;;5054858;28;20124;-45
2023/09/30 03:50:14;;;;;;;13.82;5.00;;;12.40;93.20;;;;;;5054164;28;20033;-44
2023/09/30 03:52:46;;;;;;;11.95;5.45;;;12.30;93.10;;;;;;5054190;28;20029;-45
2023/09/30 03:55:15;;;;;;;10.85;4.53;;;12.40;93.20;;;;;;5052871;28;20041;-46
2023/09/30 03:57:41;;;;;;;11.60;3.88;;;12.40;93.20;;;;;;5054460;28;20086;-44
2023/09/30 04:00:15;;;;;;;14.38;4.63;;;12.40;93.20;;;;;;5053451;28;20339;-46
2023/09/30 04:02:43;;;;;;;13.18;5.07;;;12.40;93.20;;;;;;5053570;28;20029;-43
2023/09/30 04:05:12;;;;;;;14.23;4.82;;;12.40;93.20;;;;;;5053990;28;20036;-45
2023/09/30 04:07:42;;;;;;;12.05;4.68;;;12.30;93.20;;;;;;5052662;28;20470;-43
2023/09/30 04:10:11;;;;;;;8.95;3.60;;;12.40;93.20;;;;;;5053929;28;20029;-44
2023/09/30 04:12:38;;;;;;;12.48;4.43;;;12.40;93.30;;;;;;5053659;28;20025;-47
2023/09/30 04:15:06;;;;;;;11.02;3.83;;;12.40;93.30;;;;;;5053716;28;20075;-48
2023/09/30 04:17:32;;;;;;;11.43;4.15;;;12.40;93.20;;;;;;5053591;28;20436;-45
2023/09/30 04:20:01;;;;;;;16.23;5.10;;;12.40;93.30;;;;;;5053617;28;20087;-44
2023/09/30 04:22:31;;;;;;;14.13;4.50;;;12.30;93.30;;;;;;5052884;28;20124;-45
2023/09/30 04:24:58;;;;;;;13.52;4.22;;;12.40;93.30;;;;;;5051741;28;20111;-44
2023/09/30 04:27:26;;;;;;;13.48;4.72;;;12.40;93.30;;;;;;5052288;28;20033;-44
2023/09/30 04:29:57;;;;;;;8.40;3.47;;;12.40;93.30;;;;;;5053050;28;20450;-44
2023/09/30 04:32:25;;;;;;;15.25;4.25;;;12.40;93.30;;;;;;5052639;28;20021;-44
2023/09/30 04:34:53;;;;;;;13.52;3.95;;;12.40;93.20;;;;;;5053049;28;20108;-44
2023/09/30 04:37:18;;;;;;;8.85;3.75;;;12.40;93.20;;;;;;5052560;28;20028;-48
2023/09/30 04:39:49;;;;;;;12.43;4.75;;;12.40;93.20;;;;;;5052746;28;20036;-44
2023/09/30 04:42:18;;;;;;;;;;;12.40;93.20;;;;;;5053434;28;20051;-44
2023/09/30 04:44:44;;;;;;;9.57;3.25;;;12.30;93.20;;;;;;5072822;28;19934;-44
2023/09/30 04:47:11;;;;;;;10.23;2.80;;;12.30;93.20;;;;;;5072912;28;20030;-45
2023/09/30 04:49:37;;;;;;;12.52;3.75;;;12.30;93.20;;;;;;5072928;28;20017;-47
2023/09/30 04:52:07;;;;;;;9.45;4.43;;;12.30;93.20;;;;;;5072961;28;20016;-44
2023/09/30 04:54:35;;;;;;;11.82;4.07;;;12.30;93.20;;;;;;5072620;28;20029;-47
2023/09/30 04:57:05;;;;;;;8.25;3.25;;;12.30;93.20;;;;;;5072979;28;20033;-48
2023/09/30 04:59:32;;;;;;;13.93;4.15;;;12.30;93.20;;;;;;5072749;28;20039;-45
2023/09/30 05:02:00;;;;;;;12.68;4.25;;;12.30;93.20;;;;;;5072784;28;20052;-44
2023/09/30 05:04:25;;;;;;;13.85;4.28;;;12.30;93.10;;;;;;5072642;28;20029;-45
2023/09/30 05:06:53;;;;;;;10.25;3.92;;;12.30;93.10;;;;;;5072675;28;20351;-44
2023/09/30 05:09:21;;;;;;;10.57;4.63;;;12.30;93.20;;;;;;5072576;28;20028;-43
2023/09/30 05:11:48;;;;;;;9.73;3.65;;;12.30;93.10;;;;;;5073115;28;20454;-44
2023/09/30 05:14:17;;;;;;;10.88;4.60;;;12.20;93.10;;;;;;5072585;28;20122;-44
2023/09/30 05:16:44;;;;;;;8.70;3.30;;;12.20;93.10;;;;;;5072727;28;20037;-44
2023/09/30 05:19:12;;;;;;;13.18;3.80;;;12.20;93.10;;;;;;5072577;28;20036;-46
2023/09/30 05:21:39;;;;;;;9.00;3.70;;;12.20;93.00;;;;;;5072557;28;20037;-46
2023/09/30 05:24:06;;;;;;;11.13;4.13;;;12.10;93.00;;;;;;5072358;28;20025;-48
2023/09/30 05:26:32;;;;;;;15.98;4.85;;;12.10;92.90;;;;;;5073612;28;20036;-47
2023/09/30 05:28:59;;;;;;;12.63;3.88;;;12.10;93.10;;;;;;5076796;28;20024;-44
2023/09/30 05:31:27;;;;;;;12.63;3.80;;;12.00;93.00;;;;;;5076863;28;20103;-46
2023/09/30 05:33:55;;;;;;;13.15;4.45;;;12.00;93.00;;;;;;5075954;28;20059;-46
2023/09/30 05:36:22;;;;;;;10.20;3.97;;;11.90;93.20;;;;;;5076824;28;20089;-50
2023/09/30 05:38:49;;;;;;;10.45;4.13;;;12.00;93.30;;;;;;5058695;28;20028;-47
2023/09/30 05:41:16;;;;;;;10.50;3.45;;;12.00;93.20;;;;;;5076666;28;20036;-50
2023/09/30 05:43:43;;;;;;;10.13;3.78;;;12.00;93.20;;;;;;5076024;28;20386;-47
2023/09/30 05:46:09;;;;;;;8.43;3.90;;;12.00;93.20;;;;;;5076523;28;20158;-49
2023/09/30 05:48:37;;;;;;;11.27;3.63;;;12.00;93.10;;;;;;5075310;28;20111;-52
2023/09/30 05:51:04;;;;;;;11.10;3.47;;;12.00;93.10;;;;;;5075822;28;20029;-47
2023/09/30 05:53:32;;;;;;;10.80;3.55;;;12.00;92.90;;;;;;5058411;28;20484;-47
2023/09/30 05:55:59;;;;;;;16.92;4.38;;;12.00;92.90;;;;;;5076248;28;20032;-48
2023/09/30 05:58:26;;;;;;;11.68;3.80;;;12.00;92.90;;;;;;5075590;28;20449;-44
2023/09/30 06:00:55;;;;;;;10.30;4.18;;;12.00;92.90;;;;;;5095047;28;20044;-47
2023/09/30 06:03:22;;;;;;;7.38;3.53;;;12.00;92.90;;;;;;5096052;28;20051;-44
2023/09/30 06:05:55;;;;;;;6.78;3.47;;;12.00;92.90;;;;;;5096189;28;20028;-44
2023/09/30 06:08:23;;;;;;;15.60;4.28;;;12.10;92.90;;;;;;5082346;28;20121;-44
2023/09/30 06:10:54;;;;;;;11.25;3.97;;;12.10;92.80;;;;;;5076179;28;20012;-46
2023/09/30 06:13:22;;;;;;;14.48;4.80;;;12.10;92.90;;;;;;5076036;28;20035;-45
2023/09/30 06:15:50;;;;;;;9.60;3.95;;;12.10;92.80;;;;;;5076226;28;20020;-46
2023/09/30 06:18:16;;;;;;;10.73;3.72;;;12.20;92.90;;;;;;5075745;28;20070;-44
2023/09/30 06:20:43;;;;;;;10.57;3.28;;;12.20;92.80;;;;;;5075895;28;20428;-46
2023/09/30 06:23:10;;;;;;;13.18;4.35;;;12.20;92.80;;;;;;5075752;28;20056;-46
2023/09/30 06:25:35;;;;;;;13.32;3.92;;;12.30;92.80;;;;;;5075495;28;20032;-44
2023/09/30 06:28:04;;;;;;;11.57;3.95;;;12.30;92.70;;;;;;5075630;28;20111;-46
2023/09/30 06:30:33;;;;;;;15.87;4.30;;;12.40;92.70;;;;;;5075997;28;20024;-44
2023/09/30 06:33:04;;;;;;;15.03;3.80;;;12.30;92.50;;;;;;5075355;28;20258;-44
2023/09/30 06:35:37;;;;;;;10.75;4.45;;;12.40;92.50;;;;;;5075559;28;20265;-49
2023/09/30 06:38:06;;;;;;;9.85;3.30;;;12.40;92.50;;;;;;5074963;28;20104;-45
2023/09/30 06:40:35;;;;;;;9.35;3.33;;;12.40;92.50;;;;;;5074283;28;20040;-45
2023/09/30 06:43:05;;;;;;;12.20;4.03;;;12.40;92.60;;;;;;5057123;28;20062;-45
2023/09/30 06:45:32;;;;;;;11.45;3.65;;;12.50;92.40;;;;;;5075622;28;20043;-44
2023/09/30 06:48:00;;;;;;;11.07;3.72;;;12.50;92.40;;;;;;5075310;28;20594;-43
2023/09/30 06:50:28;;;;;;;12.32;3.90;;;12.50;92.40;;;;;;5075002;28;20028;-45
2023/09/30 06:52:54;;;;;;;8.10;3.30;;;12.60;92.50;;;;;;5074784;28;20158;-45
2023/09/30 06:55:22;;;;;;;7.57;3.60;;;12.60;92.30;;;;;;5057544;28;20131;-44
2023/09/30 06:57:49;;;;;;;11.88;3.42;;;12.60;92.20;;;;;;5073935;28;20029;-44
2023/09/30 07:00:16;;;;;;;16.67;4.72;;;12.70;92.30;;;;;;5075200;28;20025;-46
2023/09/30 07:02:42;;;;;;;11.77;4.38;;;12.80;92.20;;;;;;5075514;28;20537;-45
2023/09/30 07:05:12;;;;;;;13.20;3.42;;;12.80;92.30;;;;;;5074673;28;20323;-44
2023/09/30 07:07:44;;;;;;;10.52;3.80;;;12.90;92.20;;;;;;5075695;28;20032;-46
2023/09/30 07:10:12;;;;;;;15.52;3.95;;;12.90;92.20;;;;;;5057993;28;20032;-45
2023/09/30 07:12:47;;;;;;;10.20;4.50;;;12.90;92.10;;;;;;5057218;28;20037;-45
2023/09/30 07:15:13;;;;;;;9.07;3.08;;;13.00;92.20;;;;;;5058281;28;20024;-44
2023/09/30 07:17:43;;;;;;;9.63;3.45;;;13.10;92.00;;;;;;5074932;28;20028;-44
2023/09/30 07:20:19;;;;;;;10.63;3.58;;;13.20;92.00;;;;;;5074582;28;20101;-45
2023/09/30 07:22:46;;;;;;;8.77;3.47;;;13.20;91.90;;;;;;5074757;28;20043;-44
2023/09/30 07:25:17;;;;;;;9.50;3.05;;;13.30;91.90;;;;;;5072150;28;20047;-44
2023/09/30 07:27:50;;;;;;;13.60;3.97;;;13.40;91.80;;;;;;5074398;28;20462;-46
2023/09/30 07:30:17;;;;;;;10.48;3.38;;;13.40;91.60;;;;;;5073553;28;20032;-44
2023/09/30 07:32:44;;;;;;;17.15;4.20;;;13.50;91.60;;;;;;5074971;28;20029;-44
2023/09/30 07:35:18;;;;;;;9.57;3.53;;;13.60;91.50;;;;;;5056787;28;20082;-44
2023/09/30 07:37:47;;;;;;;8.48;3.20;;;13.70;91.50;;;;;;5074856;28;20047;-44
2023/09/30 07:40:14;;;;;;;9.77;4.22;;;13.80;91.40;;;;;;5056571;28;20047;-44
2023/09/30 07:42:45;;;;;;;10.98;4.95;;;13.90;91.10;;;;;;5074125;28;20331;-44
2023/09/30 07:45:16;;;;;;;15.35;4.07;;;14.10;90.80;;;;;;5074120;28;20029;-44
2023/09/30 07:47:49;;;;;;;10.10;3.72;;;14.30;90.40;;;;;;5074150;28;20123;-46
2023/09/30 07:50:18;;;;;;;11.77;3.65;;;14.40;90.20;;;;;;5073523;28;20033;-48
2023/09/30 07:52:48;;;;;;;8.83;3.70;;;14.60;90.20;;;;;;5074638;28;20465;-45
2023/09/30 07:55:15;;;;;;;8.75;3.38;;;14.70;89.50;;;;;;5073983;28;20040;-47
2023/09/30 07:57:43;;;;;;;11.45;3.88;;;14.90;89.50;;;;;;5073744;28;20112;-47
2023/09/30 08:00:14;;;;;;;10.90;4.65;;;15.10;89.00;;;;;;5059580;28;20032;-50
2023/09/30 08:02:42;;;;;;;13.07;3.97;;;15.20;88.20;;;;;;5094180;28;20024;-46
2023/09/30 08:05:08;;;;;;;12.05;3.10;;;15.30;87.80;;;;;;5093123;28;20441;-45
2023/09/30 08:07:35;;;;;;;13.32;3.40;;;15.40;87.70;;;;;;5081090;28;20063;-50
2023/09/30 08:10:04;;;;;;;9.65;3.85;;;15.50;87.60;;;;;;5055684;28;20032;-47
2023/09/30 08:12:30;;;;;;;8.20;3.20;;;15.40;86.80;;;;;;5073473;28;20059;-46
2023/09/30 08:14:57;;;;;;;13.10;4.30;;;15.50;86.40;;;;;;5073540;28;20476;-49
2023/09/30 08:17:23;;;;;;;13.25;3.50;;;15.50;86.20;;;;;;5073437;28;20036;-52
2023/09/30 08:19:49;;;;;;;12.80;4.22;;;15.40;85.90;;;;;;5073885;28;20541;-49
2023/09/30 08:22:15;;;;;;;11.30;4.30;;;15.60;86.40;;;;;;5073487;28;20032;-52
2023/09/30 08:24:41;;;;;;;13.93;3.88;;;15.70;86.80;;;;;;5073319;28;20123;-47
2023/09/30 08:27:10;;;;;;;9.32;3.25;;;15.80;85.90;;;;;;5073390;28;20123;-52
2023/09/30 08:29:41;;;;;;;12.90;3.42;;;15.90;86.40;;;;;;5072980;28;20025;-48
2023/09/30 08:32:07;;;;;;;14.68;4.13;;;15.90;86.20;;;;;;5073362;28;20537;-48
2023/09/30 08:34:34;;;;;;;9.88;3.38;;;16.00;85.90;;;;;;5073256;28;20063;-47
2023/09/30 08:37:01;;;;;;;10.73;2.97;;;16.20;86.10;;;;;;5073132;28;20021;-51
2023/09/30 08:39:28;;;;;;;11.05;2.80;;;16.20;85.20;;;;;;5072147;28;20135;-54
2023/09/30 08:41:58;;;;;;;10.73;4.03;;;16.10;85.00;;;;;;5056006;28;20036;-48
2023/09/30 08:44:29;;;;;;;12.02;3.10;;;16.40;85.80;;;;;;5072773;28;20049;-53
2023/09/30 08:46:58;;;;;;;10.38;3.28;;;16.40;84.60;;;;;;5055657;28;20518;-49
2023/09/30 08:49:29;;;;;;;7.75;3.33;;;16.40;84.20;;;;;;5056513;28;20036;-48
2023/09/30 08:52:02;;;;;;;7.60;3.20;;;16.50;84.60;;;;;;5056283;28;20100;-51
2023/09/30 08:54:31;;;;;;;11.30;3.15;;;16.60;84.60;;;;;;5073365;28;20032;-48
2023/09/30 08:56:57;;;;;;;11.25;4.05;;;16.70;84.00;;;;;;5072981;28;20091;-49
2023/09/30 08:59:25;;;;;;;11.25;3.65;;;16.90;84.00;;;;;;5072772;28;20107;-51
2023/09/30 09:01:52;;;;;;;16.27;4.00;;;17.00;83.40;;;;;;5072786;28;20013;-50
2023/09/30 09:04:17;;;;;;;11.35;2.80;;;17.00;83.10;;;;;;5072977;28;20024;-49
2023/09/30 09:06:45;;;;;;;13.32;3.88;;;17.10;83.50;;;;;;5055031;28;20070;-53
2023/09/30 09:09:17;;;;;;;12.77;3.65;;;17.20;83.00;;;;;;5054946;28;20045;-53
2023/09/30 09:11:44;;;;;;;12.95;3.20;;;17.20;83.10;;;;;;5055100;28;20028;-52
2023/09/30 09:14:12;;;;;;;10.20;2.90;;;17.20;83.00;;;;;;5055169;28;20052;-53
2023/09/30 09:16:59;;;;;;;9.45;3.30;;;17.20;83.00;;;;;;5072670;28;20021;-51
2023/09/30 09:19:26;;;;;;;10.60;3.78;;;17.30;82.70;;;;;;5072104;28;20121;-55
2023/09/30 09:22:00;;;;;;;8.13;3.05;;;17.20;81.80;;;;;;5073288;28;20040;-53
2023/09/30 09:24:47;;;;;;;10.43;3.60;;;17.30;83.00;;;;;;5072490;28;20041;-51
2023/09/30 09:27:19;;;;;;;11.43;2.70;;;17.50;83.00;;;;;;5072578;28;20067;-52
2023/09/30 09:29:46;;;;;;;9.70;2.85;;;17.70;82.80;;;;;;5072343;28;20017;-48
2023/09/30 09:32:30;;;;;;;8.38;2.88;;;17.90;81.80;;;;;;5072048;28;20084;-51
2023/09/30 09:35:07;;;;;;;19.08;3.20;;;17.90;80.90;;;;;;5072753;28;20335;-50
2023/09/30 09:37:35;;;;;;;11.18;3.20;;;17.90;80.50;;;;;;5072228;28;20028;-49
2023/09/30 09:40:07;;;;;;;13.10;3.42;;;18.10;80.20;;;;;;5072087;28;20032;-47
2023/09/30 09:42:34;;;;;;;10.77;3.47;;;18.20;80.30;;;;;;5072539;28;20099;-47
2023/09/30 09:45:06;;;;;;;11.48;2.85;;;18.20;79.80;;;;;;5072073;28;20067;-48
2023/09/30 09:47:35;;;;;;;10.55;3.38;;;18.30;80.50;;;;;;5054676;28;20031;-51
2023/09/30 09:50:05;;;;;;;11.13;3.10;;;18.40;80.60;;;;;;5037814;28;20360;-49
2023/09/30 09:52:39;;;;;;;13.15;3.58;;;18.50;79.10;;;;;;5072746;28;20539;-52
2023/09/30 09:55:12;;;;;;;10.75;3.92;;;18.40;78.30;;;;;;5054819;28;20033;-51
2023/09/30 09:57:38;;;;;;;14.35;3.53;;;18.50;78.60;;;;;;5054781;28;20029;-49
2023/09/30 10:00:13;;;;;;;9.70;2.90;;;18.80;79.70;;;;;;5055285;28;20145;-50
2023/09/30 10:02:46;;;;;;;9.38;2.65;;;18.70;78.30;;;;;;5056173;28;20105;-48
2023/09/30 10:05:15;;;;;;;9.30;3.05;;;18.60;77.90;;;;;;5072243;28;20031;-48
2023/09/30 10:08:02;;;;;;;7.78;2.92;;;18.60;77.90;;;;;;5072141;28;20493;-47
2023/09/30 10:10:37;;;;;;;9.35;2.58;;;18.70;78.10;;;;;;5072098;28;20017;-48
2023/09/30 10:13:33;;;;;;;9.48;2.60;;;18.70;78.80;;;;;;5072996;28;20041;-47
2023/09/30 10:16:00;;;;;;;9.80;2.75;;;18.80;79.50;;;;;;5075573;28;20082;-51
2023/09/30 10:18:28;;;;;;;9.90;3.05;;;18.90;78.00;;;;;;5075580;28;20029;-49
2023/09/30 10:21:09;;;;;;;9.73;3.25;;;18.80;77.90;;;;;;5075665;28;20074;-50
2023/09/30 10:23:38;;;;;;;11.77;2.58;;;18.90;78.60;;;;;;5058806;28;20044;-51
2023/09/30 10:26:23;;;;;;;12.15;2.88;;;18.90;77.40;;;;;;5075540;28;20457;-51
2023/09/30 10:28:50;;;;;;;10.23;3.00;;;19.10;78.30;;;;;;5075519;28;20712;-47
2023/09/30 10:31:25;;;;;;;11.20;2.90;;;19.20;76.40;;;;;;5076085;28;20032;-54
2023/09/30 10:34:02;;;;;;;10.30;2.53;;;19.20;76.70;;;;;;5075662;28;20025;-47
2023/09/30 10:36:33;;;;;;;9.10;3.05;;;19.30;76.30;;;;;;5058238;28;20028;-48
2023/09/30 10:39:02;;;;;;;12.23;2.70;;;19.20;76.00;;;;;;5075455;28;20085;-48
2023/09/30 10:41:48;;;;;;;;;;;19.10;77.10;;;;;;5070567;28;20040;-47
2023/09/30 10:44:32;;;;;;;9.18;2.38;;;18.90;77.10;;;;;;5095326;28;19916;-48
2023/09/30 10:47:24;;;;;;;12.13;2.65;;;18.70;76.90;;;;;;5095442;28;20032;-47
2023/09/30 10:49:53;;;;;;;7.32;2.40;;;18.70;77.40;;;;;;5082242;28;20074;-49
2023/09/30 10:52:29;;;;;;;12.15;2.40;;;18.50;78.00;;;;;;5075328;28;20025;-47
2023/09/30 10:55:01;;;;;;;5.65;1.63;;;18.40;77.60;;;;;;5074992;28;20074;-48
2023/09/30 10:57:33;;;;;;;9.63;2.58;;;18.50;77.60;;;;;;5073425;28;20033;-47
2023/09/30 11:00:18;;;;;;;6.22;1.95;;;18.70;77.80;;;;;;5057693;28;20036;-50
2023/09/30 11:02:52;;;;;;;6.82;1.95;;;18.90;75.90;;;;;;5075046;28;20032;-46
2023/09/30 11:05:20;;;;;;;11.27;2.42;;;18.90;76.50;;;;;;5075435;28;20090;-48
2023/09/30 11:07:52;;;;;;;8.30;2.30;;;19.10;75.50;;;;;;5075103;28;20050;-48
2023/09/30 11:10:19;;;;;;;9.38;2.53;;;19.30;76.00;;;;;;5057182;28;20028;-47
2023/09/30 11:12:59;;;;;;;10.13;2.70;;;19.40;74.20;;;;;;5057126;28;20021;-50
2023/09/30 11:15:27;;;;;;;8.13;2.28;;;19.50;72.30;;;;;;5057234;28;20055;-47
2023/09/30 11:18:18;;;;;;;9.13;2.40;;;19.40;72.40;;;;;;5075131;28;20044;-47
2023/09/30 11:20:46;;;;;;;7.93;3.40;;;19.10;72.90;;;;;;5041286;28;20059;-49
2023/09/30 11:23:15;;;;;;;5.45;1.80;;;18.80;72.60;;;;;;5075348;28;20028;-47
2023/09/30 11:25:42;;;;;;;;;;;18.60;74.30;;;;;;5056418;28;20115;-48
2023/09/30 11:28:19;;;;;;;10.15;2.15;;;18.40;74.40;;;;;;5074877;28;19904;-50
2023/09/30 11:31:06;;;;;;;8.55;2.03;;;18.30;75.20;;;;;;5074478;28;20032;-52
2023/09/30 11:33:33;;;;;;;7.18;2.20;;;18.30;75.40;;;;;;5074789;28;20377;-49
2023/09/30 11:36:19;;;;;;;10.60;2.42;;;18.10;74.80;;;;;;5074814;28;20020;-47
2023/09/30 11:38:55;;;;;;;6.22;2.20;;;18.20;75.40;;;;;;5074524;28;20036;-49
2023/09/30 11:41:22;;;;;;;6.85;1.48;;;18.40;75.60;;;;;;5074744;28;20104;-50
2023/09/30 11:44:10;;;;;;;7.32;2.58;;;18.60;75.40;;;;;;5074079;28;20052;-48
2023/09/30 11:47:04;;;;;;;6.67;2.10;;;18.80;73.80;;;;;;5074371;28;20414;-51
2023/09/30 11:49:54;;;;;;;9.63;2.20;;;18.70;73.00;;;;;;5073247;28;20390;-49
2023/09/30 11:52:39;;;;;;;5.28;1.92;;;18.60;73.00;;;;;;5073317;28;20323;-51
2023/09/30 11:55:08;;;;;;;7.15;2.28;;;18.60;73.80;;;;;;5094064;28;20038;-49
2023/09/30 11:57:36;;;;;;;8.40;1.98;;;18.40;74.60;;;;;;5094593;28;20024;-48
2023/09/30 12:00:13;;;;;;;11.23;2.25;;;18.20;75.30;;;;;;5093932;28;20893;-52
2023/09/30 12:02:41;;;;;;;12.07;2.42;;;18.10;76.10;;;;;;5086214;28;20120;-51
2023/09/30 12:05:11;;;;;;;8.52;2.75;;;18.10;75.90;;;;;;5072600;28;20060;-50
2023/09/30 12:07:41;;;;;;;8.48;2.15;;;18.10;75.60;;;;;;5070487;28;20032;-52
2023/09/30 12:10:08;;;;;;;13.77;2.30;;;18.20;75.70;;;;;;5073728;28;20040;-50
2023/09/30 12:12:35;;;;;;;10.30;2.22;;;18.20;76.30;;;;;;5056511;28;20030;-54
2023/09/30 12:15:01;;;;;;;12.70;3.17;;;18.20;75.80;;;;;;5074031;28;20128;-54
2023/09/30 12:17:30;;;;;;;7.40;1.75;;;18.30;74.30;;;;;;5056598;28;20037;-50
2023/09/30 12:19:59;;;;;;;9.10;3.03;;;18.40;74.70;;;;;;5073656;28;20082;-50
2023/09/30 12:22:28;;;;;;;6.80;2.15;;;18.40;74.40;;;;;;5073575;28;20445;-50
2023/09/30 12:24:56;;;;;;;10.60;2.25;;;18.50;74.20;;;;;;5073293;28;20485;-51
2023/09/30 12:27:24;;;;;;;6.57;1.92;;;18.60;74.60;;;;;;5073209;28;20031;-52
2023/09/30 12:29:57;;;;;;;7.90;1.80;;;18.50;73.40;;;;;;5072318;28;20039;-52
2023/09/30 12:32:23;;;;;;;8.23;2.25;;;18.50;73.30;;;;;;5073215;28;20037;-47
2023/09/30 12:34:50;;;;;;;22.33;2.47;;;18.40;73.20;;;;;;5073772;28;20013;-51
2023/09/30 12:37:18;;;;;;;7.85;1.58;;;18.40;73.20;;;;;;5072919;28;20115;-48
2023/09/30 12:39:45;;;;;;;12.93;3.00;;;18.40;74.10;;;;;;5055361;28;20052;-53
2023/09/30 12:42:12;;;;;;;10.80;2.42;;;18.40;73.30;;;;;;5072327;28;20020;-49
2023/09/30 12:44:38;;;;;;;9.68;2.15;;;18.40;74.40;;;;;;5072725;28;20040;-52
2023/09/30 12:47:09;;;;;;;10.43;2.28;;;18.40;73.50;;;;;;5072769;28;20036;-49
2023/09/30 12:49:36;;;;;;;9.20;2.20;;;18.30;74.60;;;;;;5073047;28;20024;-49
2023/09/30 12:52:03;;;;;;;7.22;1.83;;;18.20;74.70;;;;;;5073486;28;20021;-52